Time;durP1;ratioP1;P1;durP2;ratioP2;P2;SDS_P1;SDS_P2;PMS_P1;PMS_P2;Temp;Humidity;BMP_temperature;BMP_pressure;BME280_temperature;BME280_humidity;BME280_pressure;Samples;Min_cycle;Max_cycle;Signal;HPM_P1;HPM_P2
2021/10/20 00:02:17;;;;;;;9.25;5.25;;;;;;;;;;4957364;28;20023;-71
2021/10/20 00:04:43;;;;;;;12.77;5.88;;;;;;;;;;4952383;28;20151;-71
2021/10/20 00:07:09;;;;;;;9.50;4.93;;;;;;;;;;4953102;28;20078;-71
2021/10/20 00:09:35;;;;;;;10.73;6.10;;;;;;;;;;4952269;28;20484;-71
2021/10/20 00:12:02;;;;;;;9.40;5.38;;;;;;;;;;4949236;29;20035;-71
2021/10/20 00:14:28;;;;;;;11.27;5.90;;;;;;;;;;4942877;28;20158;-71
2021/10/20 00:16:54;;;;;;;9.43;5.47;;;;;;;;;;4949445;28;20125;-71
2021/10/20 00:19:20;;;;;;;17.33;6.43;;;;;;;;;;4937715;28;20493;-71
2021/10/20 00:21:46;;;;;;;9.05;5.70;;;;;;;;;;4951256;28;20019;-71
2021/10/20 00:24:12;;;;;;;7.90;5.68;;;;;;;;;;4941073;28;20122;-71
2021/10/20 00:26:38;;;;;;;10.60;5.32;;;;;;;;;;4944719;28;20060;-71
2021/10/20 00:29:04;;;;;;;9.85;6.28;;;;;;;;;;4938541;28;20023;-71
2021/10/20 00:31:30;;;;;;;9.57;6.20;;;;;;;;;;4943996;28;20082;-71
2021/10/20 00:33:56;;;;;;;11.90;6.93;;;;;;;;;;4948642;28;20054;-71
2021/10/20 00:36:22;;;;;;;7.93;5.35;;;;;;;;;;4950644;28;20023;-71
2021/10/20 00:38:48;;;;;;;14.27;5.95;;;;;;;;;;4943544;28;20041;-71
2021/10/20 00:41:14;;;;;;;8.82;5.30;;;;;;;;;;4948791;28;20508;-71
2021/10/20 00:43:42;;;;;;;9.77;5.95;;;;;;;;;;4952136;28;20023;-71
2021/10/20 00:46:08;;;;;;;9.25;5.53;;;;;;;;;;4945175;28;20795;-71
2021/10/20 00:48:33;;;;;;;8.88;4.85;;;;;;;;;;4947862;28;20066;-71
2021/10/20 00:50:59;;;;;;;9.65;5.80;;;;;;;;;;4933707;28;20110;-71
2021/10/20 00:53:25;;;;;;;11.10;6.15;;;;;;;;;;4941868;28;20074;-71
2021/10/20 00:55:52;;;;;;;12.35;6.03;;;;;;;;;;4953211;28;20035;-71
2021/10/20 00:58:18;;;;;;;11.55;5.88;;;;;;;;;;4948365;28;20035;-71
2021/10/20 01:00:44;;;;;;;9.40;6.00;;;;;;;;;;4945343;28;20024;-71
2021/10/20 01:03:10;;;;;;;10.65;5.78;;;;;;;;;;4946131;28;20035;-71
2021/10/20 01:05:36;;;;;;;9.65;5.72;;;;;;;;;;4948676;28;20390;-71
2021/10/20 01:08:03;;;;;;;12.38;5.78;;;;;;;;;;4942502;28;20035;-72
2021/10/20 01:10:29;;;;;;;12.88;6.53;;;;;;;;;;4951969;28;20019;-71
2021/10/20 01:12:55;;;;;;;10.23;6.53;;;;;;;;;;4951911;28;20424;-71
2021/10/20 01:15:22;;;;;;;12.68;7.05;;;;;;;;;;4951786;28;20070;-71
2021/10/20 01:17:49;;;;;;;13.00;6.65;;;;;;;;;;4948980;28;20046;-71
2021/10/20 01:20:16;;;;;;;10.82;6.25;;;;;;;;;;4952378;28;20023;-71
2021/10/20 01:22:42;;;;;;;12.63;7.10;;;;;;;;;;4952286;28;20038;-71
2021/10/20 01:25:08;;;;;;;13.20;6.78;;;;;;;;;;4951715;28;20024;-71
2021/10/20 01:27:34;;;;;;;9.52;5.97;;;;;;;;;;4951512;28;20036;-71
2021/10/20 01:30:01;;;;;;;13.77;7.15;;;;;;;;;;4948283;28;20069;-71
2021/10/20 01:32:27;;;;;;;11.27;6.30;;;;;;;;;;4950793;28;20548;-71
2021/10/20 01:34:56;;;;;;;9.85;6.72;;;;;;;;;;4942602;28;20446;-72
2021/10/20 01:37:23;;;;;;;9.35;6.50;;;;;;;;;;4946070;28;20058;-72
2021/10/20 01:39:49;;;;;;;11.02;5.95;;;;;;;;;;4951249;28;20097;-71
2021/10/20 01:42:15;;;;;;;11.18;7.03;;;;;;;;;;4949904;28;20019;-71
2021/10/20 01:44:41;;;;;;;13.45;6.97;;;;;;;;;;4947810;28;20397;-72
2021/10/20 01:47:07;;;;;;;11.88;7.03;;;;;;;;;;4944903;28;20028;-72
2021/10/20 01:49:33;;;;;;;10.07;6.85;;;;;;;;;;4943416;28;20027;-72
2021/10/20 01:51:59;;;;;;;12.35;7.38;;;;;;;;;;4951542;28;20042;-71
2021/10/20 01:54:24;;;;;;;13.32;6.68;;;;;;;;;;4949947;28;20055;-72
2021/10/20 01:56:50;;;;;;;11.45;6.70;;;;;;;;;;4950870;28;20082;-71
2021/10/20 01:59:16;;;;;;;15.63;7.32;;;;;;;;;;4947560;28;20027;-71
2021/10/20 02:01:43;;;;;;;12.00;6.93;;;;;;;;;;4949554;28;20020;-72
2021/10/20 02:04:10;;;;;;;14.48;8.60;;;;;;;;;;4946713;28;20033;-71
2021/10/20 02:06:36;;;;;;;16.95;7.50;;;;;;;;;;4951604;28;20011;-71
2021/10/20 02:09:02;;;;;;;17.70;8.15;;;;;;;;;;4954794;28;20033;-71
2021/10/20 02:11:28;;;;;;;13.80;7.65;;;;;;;;;;4954489;28;20020;-72
2021/10/20 02:13:54;;;;;;;12.20;7.88;;;;;;;;;;4945209;28;20445;-71
2021/10/20 02:16:20;;;;;;;13.32;7.38;;;;;;;;;;4948129;28;20377;-71
2021/10/20 02:18:46;;;;;;;12.65;6.97;;;;;;;;;;4946700;28;20037;-72
2021/10/20 02:21:12;;;;;;;16.42;8.07;;;;;;;;;;4949855;28;20062;-72
2021/10/20 02:23:38;;;;;;;14.40;7.20;;;;;;;;;;4942230;28;20019;-72
2021/10/20 02:26:04;;;;;;;12.45;7.55;;;;;;;;;;4950022;28;20030;-71
2021/10/20 02:28:31;;;;;;;13.50;8.23;;;;;;;;;;4948553;28;20035;-71
2021/10/20 02:30:57;;;;;;;13.48;7.22;;;;;;;;;;4954373;28;20027;-71
2021/10/20 02:33:23;;;;;;;16.35;7.15;;;;;;;;;;4949081;28;20036;-71
2021/10/20 02:35:49;;;;;;;12.85;7.82;;;;;;;;;;4951714;28;20027;-71
2021/10/20 02:38:15;;;;;;;11.68;6.50;;;;;;;;;;4952718;28;20477;-72
2021/10/20 02:40:41;;;;;;;12.73;7.22;;;;;;;;;;4948573;28;20165;-71
2021/10/20 02:43:07;;;;;;;17.42;7.75;;;;;;;;;;4954227;28;20102;-71
2021/10/20 02:45:33;;;;;;;13.48;7.15;;;;;;;;;;4953731;28;20027;-72
2021/10/20 02:47:59;;;;;;;13.30;7.05;;;;;;;;;;4947987;28;20062;-71
2021/10/20 02:50:28;;;;;;;11.55;7.40;;;;;;;;;;4941114;28;20065;-72
2021/10/20 02:52:55;;;;;;;12.70;7.20;;;;;;;;;;4948807;28;20480;-72
2021/10/20 02:55:21;;;;;;;12.73;7.82;;;;;;;;;;4954247;28;20179;-71
2021/10/20 02:57:47;;;;;;;17.23;8.50;;;;;;;;;;4945229;28;20584;-71
2021/10/20 03:00:13;;;;;;;13.77;7.25;;;;;;;;;;4950233;28;20035;-71
2021/10/20 03:02:39;;;;;;;11.60;6.65;;;;;;;;;;4953611;28;20063;-72
2021/10/20 03:05:05;;;;;;;16.40;7.25;;;;;;;;;;4949706;28;20051;-71
2021/10/20 03:07:31;;;;;;;16.75;6.53;;;;;;;;;;4954032;28;20031;-71
2021/10/20 03:09:57;;;;;;;13.35;7.35;;;;;;;;;;4951629;28;20029;-71
2021/10/20 03:12:23;;;;;;;12.60;7.80;;;;;;;;;;4942428;28;20473;-71
2021/10/20 03:14:49;;;;;;;15.20;7.25;;;;;;;;;;4942961;28;20034;-72
2021/10/20 03:17:16;;;;;;;11.82;7.47;;;;;;;;;;4949986;28;20034;-71
2021/10/20 03:19:42;;;;;;;17.35;7.80;;;;;;;;;;4950869;28;20121;-72
2021/10/20 03:22:08;;;;;;;15.38;10.05;;;;;;;;;;4945586;28;20063;-71
2021/10/20 03:24:34;;;;;;;14.15;8.25;;;;;;;;;;4940988;28;20460;-72
2021/10/20 03:27:01;;;;;;;15.18;8.35;;;;;;;;;;4951181;28;20031;-71
2021/10/20 03:29:27;;;;;;;13.20;7.78;;;;;;;;;;4940565;28;20035;-72
2021/10/20 03:31:53;;;;;;;14.27;8.05;;;;;;;;;;4953277;29;20082;-71
2021/10/20 03:34:19;;;;;;;12.73;8.07;;;;;;;;;;4948596;28;20027;-72
2021/10/20 03:36:45;;;;;;;14.20;8.63;;;;;;;;;;4952211;28;20030;-72
2021/10/20 03:39:11;;;;;;;14.23;8.40;;;;;;;;;;4953041;28;20469;-72
2021/10/20 03:41:37;;;;;;;14.80;10.43;;;;;;;;;;4947732;28;20055;-72
2021/10/20 03:44:03;;;;;;;13.55;8.32;;;;;;;;;;4952202;28;21123;-71
2021/10/20 03:46:29;;;;;;;21.25;9.13;;;;;;;;;;4947408;28;20030;-71
2021/10/20 03:48:55;;;;;;;15.25;9.10;;;;;;;;;;4943167;28;20552;-71
2021/10/20 03:51:21;;;;;;;17.85;8.40;;;;;;;;;;4953258;28;20035;-71
2021/10/20 03:53:47;;;;;;;13.70;8.25;;;;;;;;;;4949514;28;20078;-72
2021/10/20 03:56:12;;;;;;;14.07;8.70;;;;;;;;;;4951295;28;20047;-71
2021/10/20 03:58:38;;;;;;;13.95;7.82;;;;;;;;;;4949343;28;20023;-71
2021/10/20 04:01:04;;;;;;;16.83;8.52;;;;;;;;;;4953097;28;20531;-71
2021/10/20 04:03:30;;;;;;;13.07;7.45;;;;;;;;;;4953221;28;20031;-71
2021/10/20 04:05:56;;;;;;;13.88;8.35;;;;;;;;;;4952160;28;20078;-72
2021/10/20 04:08:22;;;;;;;18.65;8.32;;;;;;;;;;4946606;28;20042;-71
2021/10/20 04:10:50;;;;;;;13.27;7.55;;;;;;;;;;4946757;28;20046;-71
2021/10/20 04:13:16;;;;;;;14.80;8.18;;;;;;;;;;4956141;28;20019;-71
2021/10/20 04:15:42;;;;;;;13.10;8.07;;;;;;;;;;4944605;28;20028;-72
2021/10/20 04:18:08;;;;;;;14.20;7.68;;;;;;;;;;4943810;28;20038;-71
2021/10/20 04:20:34;;;;;;;13.65;7.25;;;;;;;;;;4952057;28;20033;-71
2021/10/20 04:23:00;;;;;;;13.70;7.95;;;;;;;;;;4950859;28;20027;-71
2021/10/20 04:25:26;;;;;;;13.45;7.28;;;;;;;;;;4951802;28;20473;-71
2021/10/20 04:27:52;;;;;;;16.02;8.20;;;;;;;;;;4951774;28;20453;-72
2021/10/20 04:30:19;;;;;;;13.05;7.50;;;;;;;;;;4951428;28;20377;-71
2021/10/20 04:32:45;;;;;;;14.00;7.47;;;;;;;;;;4952529;28;20366;-71
2021/10/20 04:35:11;;;;;;;14.85;7.60;;;;;;;;;;4943998;28;20114;-71
2021/10/20 04:37:38;;;;;;;14.57;8.73;;;;;;;;;;4946963;28;20114;-71
2021/10/20 04:40:05;;;;;;;16.17;8.55;;;;;;;;;;4945000;28;20063;-71
2021/10/20 04:42:31;;;;;;;16.45;8.52;;;;;;;;;;4947503;28;20085;-71
2021/10/20 04:44:57;;;;;;;16.70;9.57;;;;;;;;;;4951856;28;20029;-71
2021/10/20 04:47:23;;;;;;;18.73;9.07;;;;;;;;;;4949252;28;20031;-71
2021/10/20 04:49:50;;;;;;;15.13;9.23;;;;;;;;;;4952339;28;20035;-72
2021/10/20 04:52:16;;;;;;;17.25;9.32;;;;;;;;;;4950708;28;20038;-71
2021/10/20 04:54:42;;;;;;;16.75;9.18;;;;;;;;;;4952120;28;20049;-71
2021/10/20 04:57:09;;;;;;;14.00;8.68;;;;;;;;;;4943807;28;20031;-71
2021/10/20 04:59:35;;;;;;;19.75;10.45;;;;;;;;;;4950521;28;20058;-72
2021/10/20 05:02:01;;;;;;;18.52;10.20;;;;;;;;;;4942399;28;20071;-71
2021/10/20 05:04:27;;;;;;;25.08;10.65;;;;;;;;;;4942613;28;20027;-71
2021/10/20 05:06:53;;;;;;;16.77;10.25;;;;;;;;;;4952517;28;20054;-72
2021/10/20 05:09:19;;;;;;;21.40;11.15;;;;;;;;;;4946834;28;20019;-72
2021/10/20 05:11:45;;;;;;;20.08;10.00;;;;;;;;;;4952177;28;20461;-71
2021/10/20 05:14:11;;;;;;;20.90;11.98;;;;;;;;;;4953645;29;20023;-71
2021/10/20 05:16:37;;;;;;;20.08;11.02;;;;;;;;;;4950956;28;20019;-71
2021/10/20 05:19:03;;;;;;;20.42;11.43;;;;;;;;;;4952407;28;20031;-71
2021/10/20 05:21:29;;;;;;;26.23;11.23;;;;;;;;;;4951578;28;20499;-71
2021/10/20 05:23:55;;;;;;;14.23;8.93;;;;;;;;;;4951922;28;20031;-72
2021/10/20 05:26:21;;;;;;;15.98;9.27;;;;;;;;;;4952203;28;20023;-72
2021/10/20 05:28:47;;;;;;;19.40;10.38;;;;;;;;;;4946615;28;20146;-71
2021/10/20 05:31:13;;;;;;;21.00;10.32;;;;;;;;;;4949611;28;20491;-71
2021/10/20 05:33:39;;;;;;;22.88;10.70;;;;;;;;;;4951360;28;20031;-71
2021/10/20 05:36:08;;;;;;;17.17;9.10;;;;;;;;;;4950031;28;20476;-71
2021/10/20 05:38:34;;;;;;;22.60;9.95;;;;;;;;;;4953134;28;20131;-72
2021/10/20 05:41:00;;;;;;;16.88;9.35;;;;;;;;;;4951380;28;20098;-71
2021/10/20 05:43:26;;;;;;;24.77;9.93;;;;;;;;;;4954533;28;20102;-71
2021/10/20 05:45:51;;;;;;;16.13;9.07;;;;;;;;;;4946927;28;20434;-72
2021/10/20 05:48:22;;;;;;;15.68;8.65;;;;;;;;;;4949914;28;20087;-72
2021/10/20 05:50:48;;;;;;;15.18;9.05;;;;;;;;;;4950224;28;20023;-71
2021/10/20 05:53:14;;;;;;;17.25;8.48;;;;;;;;;;4948993;28;20392;-71
2021/10/20 05:55:40;;;;;;;15.68;8.88;;;;;;;;;;4951848;28;20098;-72
2021/10/20 05:58:06;;;;;;;16.80;9.40;;;;;;;;;;4949388;28;20118;-72
2021/10/20 06:00:32;;;;;;;15.52;9.45;;;;;;;;;;4953823;28;20098;-71
2021/10/20 06:02:58;;;;;;;13.68;8.43;;;;;;;;;;4955595;28;20043;-72
2021/10/20 06:05:24;;;;;;;15.18;8.80;;;;;;;;;;4955112;28;20023;-71
2021/10/20 06:07:51;;;;;;;13.77;7.30;;;;;;;;;;4955715;28;20027;-71
2021/10/20 06:10:17;;;;;;;17.08;9.15;;;;;;;;;;4951115;28;20019;-71
2021/10/20 06:12:43;;;;;;;14.52;8.30;;;;;;;;;;4957352;28;20069;-71
2021/10/20 06:15:09;;;;;;;14.82;9.18;;;;;;;;;;4955454;28;20119;-71
2021/10/20 06:17:36;;;;;;;17.25;8.15;;;;;;;;;;4949020;28;20062;-71
2021/10/20 06:20:03;;;;;;;17.95;9.27;;;;;;;;;;4954630;28;20034;-71
2021/10/20 06:22:29;;;;;;;14.73;9.15;;;;;;;;;;4954825;28;20031;-72
2021/10/20 06:24:55;;;;;;;15.60;7.38;;;;;;;;;;4952781;28;20023;-71
2021/10/20 06:27:21;;;;;;;13.43;7.32;;;;;;;;;;4954739;28;20037;-72
2021/10/20 06:29:47;;;;;;;10.65;7.05;;;;;;;;;;4951200;28;20122;-71
2021/10/20 06:32:13;;;;;;;11.73;7.03;;;;;;;;;;4947196;28;20019;-71
2021/10/20 06:34:38;;;;;;;13.30;6.82;;;;;;;;;;4954157;28;20023;-72
2021/10/20 06:37:04;;;;;;;10.70;6.28;;;;;;;;;;4945709;28;20045;-71
2021/10/20 06:39:31;;;;;;;14.48;6.10;;;;;;;;;;4952403;28;20031;-71
2021/10/20 06:41:57;;;;;;;15.18;7.38;;;;;;;;;;4955965;28;20030;-71
2021/10/20 06:44:24;;;;;;;11.35;7.15;;;;;;;;;;4952648;28;20019;-71
2021/10/20 06:46:50;;;;;;;12.05;6.88;;;;;;;;;;4952167;28;20039;-71
2021/10/20 06:49:16;;;;;;;10.85;6.03;;;;;;;;;;4953522;28;20023;-71
2021/10/20 06:51:42;;;;;;;12.88;6.50;;;;;;;;;;4947014;28;20027;-71
2021/10/20 06:54:10;;;;;;;13.20;7.50;;;;;;;;;;4945595;28;20023;-71
2021/10/20 06:56:36;;;;;;;12.70;6.88;;;;;;;;;;4949512;28;20038;-72
2021/10/20 06:59:02;;;;;;;12.02;7.38;;;;;;;;;;4953753;28;20027;-72
2021/10/20 07:01:28;;;;;;;12.80;6.38;;;;;;;;;;4952637;28;20027;-72
2021/10/20 07:03:53;;;;;;;10.30;6.40;;;;;;;;;;4953856;28;20216;-71
2021/10/20 07:06:23;;;;;;;13.80;7.30;;;;;;;;;;4950601;28;20082;-71
2021/10/20 07:08:49;;;;;;;13.10;6.78;;;;;;;;;;4953727;28;20034;-71
2021/10/20 07:11:14;;;;;;;11.35;7.43;;;;;;;;;;4955626;28;20023;-71
2021/10/20 07:13:40;;;;;;;14.48;7.28;;;;;;;;;;4970718;28;20031;-71
2021/10/20 07:16:06;;;;;;;12.65;7.78;;;;;;;;;;4960006;28;20528;-71
2021/10/20 07:18:32;;;;;;;17.52;7.72;;;;;;;;;;4953052;28;20035;-72
2021/10/20 07:21:01;;;;;;;11.90;7.75;;;;;;;;;;4953252;28;20433;-71
2021/10/20 07:23:27;;;;;;;14.00;7.07;;;;;;;;;;4952162;28;20054;-72
2021/10/20 07:25:52;;;;;;;14.45;7.97;;;;;;;;;;4952332;28;20567;-71
2021/10/20 07:28:18;;;;;;;13.02;7.13;;;;;;;;;;4951566;28;20611;-72
2021/10/20 07:30:44;;;;;;;14.43;8.07;;;;;;;;;;4935366;28;20522;-71
2021/10/20 07:33:10;;;;;;;15.23;8.13;;;;;;;;;;4931974;28;20079;-71
2021/10/20 07:35:36;;;;;;;14.63;7.97;;;;;;;;;;4934462;29;20040;-72
2021/10/20 07:38:02;;;;;;;15.20;8.10;;;;;;;;;;4931737;29;20028;-72
2021/10/20 07:40:28;;;;;;;11.80;7.95;;;;;;;;;;4929629;29;20039;-72
2021/10/20 07:42:54;;;;;;;16.05;7.38;;;;;;;;;;4931065;29;20035;-71
2021/10/20 07:45:20;;;;;;;13.32;7.75;;;;;;;;;;4932982;29;20028;-71
2021/10/20 07:47:47;;;;;;;15.38;8.30;;;;;;;;;;4931916;29;20043;-72
2021/10/20 07:50:14;;;;;;;12.90;6.93;;;;;;;;;;4929583;29;20398;-71
2021/10/20 07:52:41;;;;;;;12.27;6.57;;;;;;;;;;4929350;29;20036;-71
2021/10/20 07:55:07;;;;;;;12.90;7.35;;;;;;;;;;4928886;29;20552;-71
2021/10/20 07:57:36;;;;;;;11.38;7.15;;;;;;;;;;4928903;29;20067;-71
2021/10/20 08:00:05;;;;;;;13.50;7.38;;;;;;;;;;4929001;29;20058;-72
2021/10/20 08:02:30;;;;;;;15.93;7.65;;;;;;;;;;4932494;29;20036;-72
2021/10/20 08:04:56;;;;;;;11.95;6.35;;;;;;;;;;4934037;29;20102;-72
2021/10/20 08:07:22;;;;;;;10.32;6.40;;;;;;;;;;4928426;29;20505;-72
2021/10/20 08:09:48;;;;;;;11.07;6.97;;;;;;;;;;4910062;29;20066;-73
2021/10/20 08:12:17;;;;;;;10.45;7.05;;;;;;;;;;4930485;29;20083;-73
2021/10/20 08:14:43;;;;;;;12.85;7.15;;;;;;;;;;4931497;29;20032;-72
2021/10/20 08:17:09;;;;;;;11.48;6.68;;;;;;;;;;4927308;29;20520;-73
2021/10/20 08:19:35;;;;;;;11.80;7.55;;;;;;;;;;4931975;29;20061;-72
2021/10/20 08:22:01;;;;;;;21.10;7.05;;;;;;;;;;4931462;29;20477;-72
2021/10/20 08:24:28;;;;;;;20.65;7.55;;;;;;;;;;4930432;29;20075;-73
2021/10/20 08:26:54;;;;;;;13.25;7.45;;;;;;;;;;4931963;29;20020;-73
2021/10/20 08:29:20;;;;;;;14.07;7.55;;;;;;;;;;4931152;29;20030;-70
2021/10/20 08:31:46;;;;;;;10.93;6.43;;;;;;;;;;4930760;29;20024;-70
2021/10/20 08:34:12;;;;;;;13.45;6.95;;;;;;;;;;4916625;29;20024;-70
2021/10/20 08:36:38;;;;;;;12.95;7.93;;;;;;;;;;4923181;29;20024;-72
2021/10/20 08:39:04;;;;;;;12.30;7.50;;;;;;;;;;4928471;29;20405;-71
2021/10/20 08:41:30;;;;;;;11.50;7.03;;;;;;;;;;4931172;29;20413;-72
2021/10/20 08:43:58;;;;;;;14.90;8.65;;;;;;;;;;4932003;29;20024;-71
2021/10/20 08:46:25;;;;;;;10.85;6.90;;;;;;;;;;4931845;29;20027;-72
2021/10/20 08:48:52;;;;;;;10.60;6.95;;;;;;;;;;4930348;29;20101;-72
2021/10/20 08:51:18;;;;;;;11.02;7.18;;;;;;;;;;4926879;29;20140;-72
2021/10/20 08:53:44;;;;;;;9.35;6.07;;;;;;;;;;4915520;29;20469;-73
2021/10/20 08:56:14;;;;;;;11.43;7.35;;;;;;;;;;4929061;29;20031;-73
2021/10/20 08:58:40;;;;;;;9.25;6.40;;;;;;;;;;4927898;29;20075;-72
2021/10/20 09:01:06;;;;;;;10.43;6.93;;;;;;;;;;4930274;29;20032;-72
2021/10/20 09:03:32;;;;;;;12.95;6.65;;;;;;;;;;4923541;29;20016;-72
2021/10/20 09:05:58;;;;;;;10.13;6.70;;;;;;;;;;4930227;29;20028;-72
2021/10/20 09:08:24;;;;;;;10.63;6.75;;;;;;;;;;4925785;29;20059;-72
2021/10/20 09:10:50;;;;;;;11.77;6.95;;;;;;;;;;4918745;29;20070;-72
2021/10/20 09:13:16;;;;;;;11.80;7.07;;;;;;;;;;4927759;29;20059;-72
2021/10/20 09:15:43;;;;;;;11.32;7.05;;;;;;;;;;4932509;29;20083;-73
2021/10/20 09:18:11;;;;;;;10.35;6.93;;;;;;;;;;4926212;29;20031;-72
2021/10/20 09:20:41;;;;;;;11.23;7.32;;;;;;;;;;4930348;29;20027;-73
2021/10/20 09:23:07;;;;;;;;;;;;;;;;;;4932969;29;20015;-72
2021/10/20 09:25:34;;;;;;;11.05;6.40;;;;;;;;;;4932862;29;20367;-72
2021/10/20 09:28:01;;;;;;;11.32;7.18;;;;;;;;;;4912894;29;20035;-73
2021/10/20 09:30:30;;;;;;;10.18;5.93;;;;;;;;;;4921575;29;20084;-72
2021/10/20 09:32:58;;;;;;;10.77;6.55;;;;;;;;;;4923178;29;20569;-73
2021/10/20 09:35:24;;;;;;;9.85;6.00;;;;;;;;;;4921286;29;20027;-73
2021/10/20 09:37:57;;;;;;;10.88;5.97;;;;;;;;;;4923241;29;20036;-72
2021/10/20 09:40:22;;;;;;;10.20;6.00;;;;;;;;;;4932556;29;20027;-72
2021/10/20 09:42:56;;;;;;;9.10;5.43;;;;;;;;;;4922985;29;20060;-72
2021/10/20 09:45:23;;;;;;;11.07;5.60;;;;;;;;;;4922951;29;20034;-72
2021/10/20 09:47:49;;;;;;;7.93;5.63;;;;;;;;;;4919050;29;20163;-72
2021/10/20 09:50:17;;;;;;;11.07;6.85;;;;;;;;;;4926171;29;20382;-72
2021/10/20 09:52:53;;;;;;;13.02;6.25;;;;;;;;;;4918128;29;20058;-72
2021/10/20 09:55:26;;;;;;;9.55;6.28;;;;;;;;;;4920839;29;20102;-72
2021/10/20 09:57:54;;;;;;;10.90;5.07;;;;;;;;;;4925111;29;20035;-72
2021/10/20 10:00:20;;;;;;;10.40;4.90;;;;;;;;;;4931662;29;20026;-71
2021/10/20 10:02:47;;;;;;;11.98;6.18;;;;;;;;;;4920380;29;20114;-71
2021/10/20 10:05:12;;;;;;;7.53;4.85;;;;;;;;;;4927841;29;20028;-71
2021/10/20 10:07:38;;;;;;;7.32;4.90;;;;;;;;;;4925911;29;20044;-71
2021/10/20 10:10:04;;;;;;;9.90;5.57;;;;;;;;;;4918378;29;20024;-71
2021/10/20 10:12:32;;;;;;;11.30;5.78;;;;;;;;;;4951387;23;20475;-70
2021/10/20 10:15:09;;;;;;;9.70;5.50;;;;;;;;;;4946642;28;20027;-70
2021/10/20 10:17:37;;;;;;;14.27;5.72;;;;;;;;;;4930229;29;20404;-70
2021/10/20 10:20:08;;;;;;;6.28;4.30;;;;;;;;;;4949122;28;20078;-69
2021/10/20 10:22:34;;;;;;;7.55;4.93;;;;;;;;;;4933018;29;20067;-69
2021/10/20 10:25:03;;;;;;;8.77;4.72;;;;;;;;;;4933789;28;20039;-69
2021/10/20 10:27:29;;;;;;;9.45;4.50;;;;;;;;;;4935623;28;20020;-69
2021/10/20 10:30:03;;;;;;;7.10;4.60;;;;;;;;;;4933992;28;20027;-69
2021/10/20 10:32:31;;;;;;;11.07;6.10;;;;;;;;;;4938206;28;20032;-69
2021/10/20 10:35:00;;;;;;;9.02;4.70;;;;;;;;;;4939186;28;20358;-69
2021/10/20 10:37:27;;;;;;;9.57;5.28;;;;;;;;;;4937656;29;20110;-70
2021/10/20 10:39:54;;;;;;;7.25;4.28;;;;;;;;;;4940754;28;20034;-70
2021/10/20 10:42:30;;;;;;;10.43;4.78;;;;;;;;;;4941306;28;20112;-69
2021/10/20 10:45:08;;;;;;;9.13;5.20;;;;;;;;;;4940942;28;20027;-68
2021/10/20 10:47:34;;;;;;;8.02;5.07;;;;;;;;;;4942655;28;20038;-70
2021/10/20 10:50:00;;;;;;;10.63;4.13;;;;;;;;;;4943421;28;20035;-69
2021/10/20 10:52:33;;;;;;;9.93;4.93;;;;;;;;;;4939165;28;20661;-69
2021/10/20 10:54:59;;;;;;;10.63;4.78;;;;;;;;;;4942163;28;20043;-69
2021/10/20 10:57:36;;;;;;;7.35;4.22;;;;;;;;;;4939834;28;20028;-70
2021/10/20 11:00:24;;;;;;;13.02;4.03;;;;;;;;;;4940939;28;20020;-68
2021/10/20 11:02:51;;;;;;;9.27;4.32;;;;;;;;;;4950803;28;20031;-68
2021/10/20 11:05:37;;;;;;;9.52;5.20;;;;;;;;;;4961083;28;20022;-69
2021/10/20 11:08:05;;;;;;;7.20;4.22;;;;;;;;;;4934393;28;20032;-69
2021/10/20 11:10:32;;;;;;;7.40;4.00;;;;;;;;;;4936616;28;20032;-69
2021/10/20 11:12:59;;;;;;;8.18;4.22;;;;;;;;;;4935195;28;20035;-69
2021/10/20 11:15:27;;;;;;;6.55;3.78;;;;;;;;;;4934023;28;20085;-69
2021/10/20 11:17:55;;;;;;;10.18;4.00;;;;;;;;;;4934183;28;20090;-69
2021/10/20 11:20:21;;;;;;;9.73;3.58;;;;;;;;;;4939697;28;20488;-69
2021/10/20 11:22:51;;;;;;;6.03;3.92;;;;;;;;;;4936080;28;20152;-69
2021/10/20 11:25:18;;;;;;;6.70;3.72;;;;;;;;;;4937523;28;20023;-69
2021/10/20 11:27:47;;;;;;;11.82;3.65;;;;;;;;;;4935735;28;20035;-71
2021/10/20 11:30:14;;;;;;;7.22;3.78;;;;;;;;;;4935008;28;20118;-70
2021/10/20 11:32:41;;;;;;;8.00;4.07;;;;;;;;;;4938148;28;20040;-70
2021/10/20 11:35:13;;;;;;;11.65;4.07;;;;;;;;;;4937996;28;20031;-70
2021/10/20 11:37:39;;;;;;;7.63;3.45;;;;;;;;;;4935281;28;20027;-70
2021/10/20 11:40:05;;;;;;;7.05;4.22;;;;;;;;;;4939579;28;20372;-70
2021/10/20 11:42:34;;;;;;;11.55;4.32;;;;;;;;;;4921473;29;20024;-70
2021/10/20 11:45:04;;;;;;;7.72;3.28;;;;;;;;;;4936158;28;20553;-70
2021/10/20 11:47:31;;;;;;;8.40;3.42;;;;;;;;;;4935663;28;20020;-70
2021/10/20 11:49:57;;;;;;;13.35;4.65;;;;;;;;;;4934824;28;20027;-70
2021/10/20 11:52:25;;;;;;;5.72;3.17;;;;;;;;;;4934715;28;20083;-70
2021/10/20 11:54:54;;;;;;;8.70;3.15;;;;;;;;;;4935328;28;20036;-70
2021/10/20 11:57:20;;;;;;;6.32;2.53;;;;;;;;;;4932554;28;20067;-69
2021/10/20 11:59:48;;;;;;;8.88;2.92;;;;;;;;;;4933336;28;20079;-69
2021/10/20 12:02:14;;;;;;;8.27;3.22;;;;;;;;;;4933924;28;20020;-70
2021/10/20 12:04:41;;;;;;;8.93;3.30;;;;;;;;;;4935052;28;20103;-70
2021/10/20 12:07:08;;;;;;;10.13;3.08;;;;;;;;;;4932793;28;20631;-70
2021/10/20 12:09:38;;;;;;;6.90;2.80;;;;;;;;;;4934650;28;20078;-69
2021/10/20 12:12:05;;;;;;;10.55;3.17;;;;;;;;;;4933266;28;20075;-70
2021/10/20 12:14:33;;;;;;;8.10;3.47;;;;;;;;;;4936618;28;20019;-69
2021/10/20 12:17:03;;;;;;;7.07;2.95;;;;;;;;;;4934460;28;20059;-70
2021/10/20 12:19:30;;;;;;;10.52;3.63;;;;;;;;;;4937611;28;20086;-69
2021/10/20 12:21:59;;;;;;;9.50;3.60;;;;;;;;;;4934764;28;20449;-70
2021/10/20 12:24:25;;;;;;;7.60;2.80;;;;;;;;;;4934170;28;20012;-69
2021/10/20 12:26:55;;;;;;;11.05;2.65;;;;;;;;;;4932776;28;20050;-69
2021/10/20 12:29:21;;;;;;;8.80;3.22;;;;;;;;;;4939703;28;20494;-69
2021/10/20 12:31:48;;;;;;;9.43;2.13;;;;;;;;;;4933639;28;20043;-68
2021/10/20 12:34:14;;;;;;;10.10;1.95;;;;;;;;;;4933928;28;20393;-69
2021/10/20 12:36:41;;;;;;;9.00;3.25;;;;;;;;;;4933545;28;20023;-69
2021/10/20 12:39:07;;;;;;;13.80;3.10;;;;;;;;;;4932781;28;20051;-69
2021/10/20 12:41:34;;;;;;;8.38;2.45;;;;;;;;;;4932329;28;20055;-69
2021/10/20 12:44:04;;;;;;;10.68;2.38;;;;;;;;;;4933834;28;20034;-69
2021/10/20 12:46:30;;;;;;;;;;;;;;;;;;4937040;28;20082;-69
2021/10/20 12:48:56;;;;;;;10.05;1.95;;;;;;;;;;4932850;29;19910;-69
2021/10/20 12:51:24;;;;;;;9.20;2.80;;;;;;;;;;4934334;28;20024;-69
2021/10/20 12:53:55;;;;;;;12.27;2.08;;;;;;;;;;4934462;28;20027;-69
2021/10/20 12:56:23;;;;;;;7.47;2.30;;;;;;;;;;4934167;28;20102;-69
2021/10/20 12:58:49;;;;;;;12.07;2.50;;;;;;;;;;4934595;28;20030;-69
2021/10/20 13:01:15;;;;;;;12.30;2.50;;;;;;;;;;4932153;28;20023;-69
2021/10/20 13:03:41;;;;;;;13.77;4.78;;;;;;;;;;4934009;28;20028;-69
2021/10/20 13:06:09;;;;;;;10.40;2.05;;;;;;;;;;4933216;28;20046;-69
2021/10/20 13:08:37;;;;;;;11.00;2.55;;;;;;;;;;4931909;29;20076;-69
2021/10/20 13:11:04;;;;;;;14.30;3.15;;;;;;;;;;4932558;28;20032;-69
2021/10/20 13:13:30;;;;;;;14.55;2.67;;;;;;;;;;4931825;29;20036;-69
2021/10/20 13:15:57;;;;;;;8.85;2.35;;;;;;;;;;4931477;28;20024;-69
2021/10/20 13:18:23;;;;;;;14.10;3.25;;;;;;;;;;4934086;28;20028;-69
2021/10/20 13:20:49;;;;;;;12.70;3.13;;;;;;;;;;4932751;28;20032;-69
2021/10/20 13:23:15;;;;;;;13.52;3.17;;;;;;;;;;4938043;28;20027;-69
2021/10/20 13:25:42;;;;;;;8.40;1.90;;;;;;;;;;4941885;28;20462;-69
2021/10/20 13:28:08;;;;;;;14.07;2.58;;;;;;;;;;4929007;29;20028;-69
2021/10/20 13:30:38;;;;;;;13.05;2.58;;;;;;;;;;4934324;29;20028;-69
2021/10/20 13:33:05;;;;;;;8.13;1.80;;;;;;;;;;4936488;28;20031;-69
2021/10/20 13:35:34;;;;;;;10.00;2.33;;;;;;;;;;4932726;28;20034;-70
2021/10/20 13:38:06;;;;;;;8.90;1.85;;;;;;;;;;4935319;28;20027;-70
2021/10/20 13:40:32;;;;;;;9.55;1.92;;;;;;;;;;4934441;28;20110;-69
2021/10/20 13:42:57;;;;;;;11.90;3.15;;;;;;;;;;4933734;28;20122;-69
2021/10/20 13:45:24;;;;;;;9.23;2.28;;;;;;;;;;4931814;28;20625;-70
2021/10/20 13:47:50;;;;;;;10.27;2.20;;;;;;;;;;4932055;28;20046;-70
2021/10/20 13:50:15;;;;;;;7.05;1.83;;;;;;;;;;4930474;29;20118;-70
2021/10/20 13:52:43;;;;;;;11.02;3.10;;;;;;;;;;4931256;28;20111;-70
2021/10/20 13:55:10;;;;;;;10.13;2.00;;;;;;;;;;4934239;28;20031;-70
2021/10/20 13:57:36;;;;;;;7.35;2.53;;;;;;;;;;4932484;28;20484;-69
2021/10/20 14:00:03;;;;;;;9.80;1.95;;;;;;;;;;4945886;28;20030;-69
2021/10/20 14:02:29;;;;;;;6.53;1.77;;;;;;;;;;4935219;28;20548;-73
2021/10/20 14:04:55;;;;;;;3.95;2.33;;;;;;;;;;4951945;28;20034;-72
2021/10/20 14:07:25;;;;;;;5.13;1.60;;;;;;;;;;4955042;28;20023;-72
2021/10/20 14:09:51;;;;;;;4.70;1.70;;;;;;;;;;4935549;29;20535;-72
2021/10/20 14:12:17;;;;;;;9.82;2.25;;;;;;;;;;4932921;29;20055;-72
2021/10/20 14:14:43;;;;;;;6.22;1.92;;;;;;;;;;4944789;28;20071;-72
2021/10/20 14:17:10;;;;;;;9.35;2.63;;;;;;;;;;4929639;29;20055;-73
2021/10/20 14:19:36;;;;;;;8.73;2.22;;;;;;;;;;4945929;28;20032;-72
2021/10/20 14:22:03;;;;;;;8.73;1.90;;;;;;;;;;4940750;28;20019;-73
2021/10/20 14:24:29;;;;;;;7.90;1.75;;;;;;;;;;4931007;29;20040;-73
2021/10/20 14:26:55;;;;;;;8.05;1.50;;;;;;;;;;4942477;28;20066;-73
2021/10/20 14:29:22;;;;;;;8.20;2.05;;;;;;;;;;4947605;28;20027;-73
2021/10/20 14:31:50;;;;;;;5.00;1.50;;;;;;;;;;4949569;28;20031;-72